Time;durP1;ratioP1;P1;durP2;ratioP2;P2;SDS_P1;SDS_P2;PMS_P1;PMS_P2;Temp;Humidity;BMP_temperature;BMP_pressure;BME280_temperature;BME280_humidity;BME280_pressure;Samples;Min_cycle;Max_cycle;Signal;HPM_P1;HPM_P2
2021/12/13 00:02:23;;;;;;;6.13;2.72;;;5.30;99.90;;;4.65;100.00;98263.34;4971340;28;20030;-87
2021/12/13 00:05:14;;;;;;;3.67;2.40;;;5.30;99.90;;;4.64;100.00;98261.59;4966984;28;20041;-86
2021/12/13 00:07:45;;;;;;;4.28;2.42;;;5.30;99.90;;;4.50;100.00;98238.06;4966467;28;20030;-87
2021/12/13 00:10:18;;;;;;;3.85;2.58;;;5.30;99.90;;;4.61;100.00;98258.97;4946612;28;20092;-87
2021/12/13 00:13:00;;;;;;;7.25;2.53;;;5.30;99.90;;;4.63;100.00;98258.97;4979326;28;20053;-86
2021/12/13 00:15:35;;;;;;;3.75;2.50;;;5.30;99.90;;;4.64;100.00;98265.97;4966821;28;20046;-87
2021/12/13 00:18:07;;;;;;;4.60;2.72;;;5.30;99.90;;;4.63;100.00;98266.81;4965559;28;20044;-87
2021/12/13 00:20:41;;;;;;;4.85;2.45;;;5.30;99.90;;;4.24;100.00;98206.72;4977079;28;20114;-87
2021/12/13 00:23:32;;;;;;;6.15;2.75;;;5.30;99.90;;;4.65;100.00;98260.75;4981607;28;20053;-86
2021/12/13 00:26:01;;;;;;;6.72;3.13;;;5.30;99.90;;;4.67;100.00;98260.75;4977610;28;20061;-87
2021/12/13 00:28:35;;;;;;;4.65;2.72;;;5.30;99.90;;;4.37;100.00;98202.38;4977835;28;20655;-87
2021/12/13 00:31:41;;;;;;;5.72;2.70;;;5.30;99.90;;;4.68;100.00;98252.88;4957571;28;20054;-87
2021/12/13 00:34:22;;;;;;;4.78;2.80;;;5.30;99.90;;;4.59;100.00;98239.81;4993765;28;20042;-87
2021/12/13 00:37:05;;;;;;;5.05;2.50;;;5.30;99.90;;;4.68;100.00;98258.09;4989884;28;20687;-87
2021/12/13 00:39:56;;;;;;;6.15;2.38;;;5.40;99.90;;;4.66;100.00;98249.41;4983525;28;20489;-86
2021/12/13 00:42:28;;;;;;;6.47;2.80;;;5.40;99.90;;;4.63;100.00;98257.25;4968556;28;20069;-87
2021/12/13 00:44:57;;;;;;;;;;;5.30;99.90;;;4.68;100.00;98267.69;4991758;28;20474;-87
2021/12/13 00:47:29;;;;;;;6.57;2.47;;;5.30;99.90;;;4.68;100.00;98273.78;4954523;28;19995;-87
2021/12/13 00:50:27;;;;;;;5.90;2.80;;;5.30;99.90;;;4.68;100.00;98268.56;4955228;28;20073;-87
2021/12/13 00:52:54;;;;;;;4.18;2.42;;;5.30;99.90;;;4.62;100.00;98263.34;4954886;28;20460;-87
2021/12/13 00:55:28;;;;;;;5.78;2.72;;;5.40;99.90;;;4.60;100.00;98259.88;4991231;28;20324;-87
2021/12/13 00:58:12;;;;;;;4.97;2.60;;;5.30;99.90;;;4.65;100.00;98267.69;4957322;28;20034;-87
2021/12/13 01:00:51;;;;;;;4.38;2.80;;;5.30;99.90;;;4.59;100.00;98263.34;4954432;28;20026;-87
2021/12/13 01:03:46;;;;;;;4.40;2.63;;;5.30;99.90;;;4.52;100.00;98256.38;4957058;28;20023;-87
2021/12/13 01:07:08;;;;;;;6.18;2.72;;;5.30;99.90;;;4.59;100.00;98271.19;4953401;28;20080;-87
2021/12/13 01:10:17;;;;;;;4.32;2.42;;;5.30;99.90;;;4.37;100.00;98226.75;4989026;28;20022;-87
2021/12/13 01:12:46;;;;;;;4.40;2.40;;;5.30;99.90;;;4.58;100.00;98265.09;4992766;28;20522;-86
2021/12/13 01:15:28;;;;;;;4.20;2.45;;;5.30;99.90;;;4.29;100.00;98211.94;4989658;28;20052;-87
2021/12/13 01:18:04;;;;;;;;;;;5.30;99.90;;;4.42;100.00;98225.91;4957894;28;20052;-86
2021/12/13 01:23:41;;;;;;;4.47;2.67;;;5.30;99.90;;;4.63;100.00;98264.22;4983527;28;20216;-87
2021/12/13 01:26:52;;;;;;;5.90;3.28;;;5.30;99.90;;;4.51;100.00;98246.81;4965211;28;20057;-86
2021/12/13 01:29:06;;;;;;;;;;;5.30;99.90;;;4.60;100.00;98259.88;4963961;28;20100;-87
2021/12/13 01:31:53;;;;;;;5.63;3.00;;;5.30;99.90;;;4.67;100.00;98274.69;4959780;28;19921;-87
2021/12/13 01:34:23;;;;;;;6.97;3.28;;;5.30;99.90;;;4.70;100.00;98272.06;4957000;28;20038;-87
2021/12/13 01:37:04;;;;;;;4.75;3.22;;;5.30;99.90;;;4.72;100.00;98277.28;4985203;28;20118;-86
2021/12/13 01:39:36;;;;;;;9.13;3.20;;;5.40;99.90;;;4.68;100.00;98265.09;4972280;28;20037;-87
2021/12/13 01:42:09;;;;;;;4.65;3.08;;;5.40;99.90;;;4.54;100.00;98247.69;4967750;28;20030;-86
2021/12/13 01:44:42;;;;;;;6.88;3.35;;;5.40;99.90;;;4.60;100.00;98254.66;4977416;28;20108;-87
2021/12/13 01:47:18;;;;;;;8.50;3.38;;;5.40;99.90;;;4.69;100.00;98280.78;5007814;28;20030;-87
2021/12/13 01:49:51;;;;;;;7.10;3.38;;;5.40;99.90;;;4.53;100.00;98247.66;4958002;28;20038;-87
2021/12/13 01:52:30;;;;;;;5.97;3.17;;;5.40;99.90;;;4.68;100.00;98286.84;4951788;28;20533;-87
2021/12/13 01:55:09;;;;;;;4.28;3.15;;;5.40;99.90;;;4.46;100.00;98245.91;4973217;28;20092;-86
2021/12/13 01:57:48;;;;;;;6.13;3.35;;;5.40;99.90;;;4.68;100.00;98275.53;4960753;28;20026;-87
2021/12/13 02:01:08;;;;;;;5.63;3.15;;;5.40;99.90;;;4.70;100.00;98279.91;4976669;28;20557;-87
2021/12/13 02:03:20;;;;;;;6.78;3.42;;;5.40;99.90;;;4.72;100.00;98275.56;4982718;28;20128;-87
2021/12/13 02:05:48;;;;;;;6.25;3.20;;;5.40;99.90;;;4.74;100.00;98280.78;4955717;28;20108;-87
2021/12/13 02:08:20;;;;;;;6.13;3.28;;;5.40;99.90;;;4.74;100.00;98276.44;4967203;28;20053;-86
2021/12/13 02:10:54;;;;;;;5.20;2.95;;;5.40;99.90;;;4.55;100.00;98245.94;4969502;28;20284;-86
2021/12/13 02:13:38;;;;;;;5.43;3.40;;;5.40;99.90;;;4.77;100.00;98272.94;4986624;28;20084;-86
2021/12/13 02:18:57;;;;;;;6.65;3.20;;;5.40;99.90;;;4.79;100.00;98265.94;4967948;28;20096;-87
2021/12/13 02:21:30;;;;;;;9.73;4.00;;;5.40;99.90;;;4.55;100.00;98231.13;4957614;28;20117;-86
2021/12/13 02:24:11;;;;;;;8.45;4.05;;;5.50;99.90;;;4.65;100.00;98252.91;4975371;28;20030;-86
2021/12/13 02:26:44;;;;;;;5.93;4.00;;;5.40;99.90;;;4.75;100.00;98269.44;4951787;28;20030;-86
2021/12/13 02:29:34;;;;;;;5.90;4.13;;;5.50;99.90;;;4.57;100.00;98238.97;4990055;28;20030;-86
2021/12/13 02:32:01;;;;;;;6.50;4.10;;;5.40;99.90;;;4.38;100.00;98219.81;4968255;28;20044;-86
2021/12/13 02:34:30;;;;;;;7.00;4.28;;;5.40;99.90;;;4.72;100.00;98269.44;4963660;28;20806;-86
2021/12/13 02:36:56;;;;;;;8.85;4.90;;;5.40;99.90;;;4.54;100.00;98246.78;4950362;28;20197;-86
2021/12/13 02:39:35;;;;;;;7.55;4.18;;;5.40;99.90;;;4.50;100.00;98243.28;4945671;28;20049;-85
2021/12/13 02:42:06;;;;;;;8.18;4.47;;;5.40;99.90;;;4.72;100.00;98283.41;4965710;28;20025;-86
2021/12/13 02:44:42;;;;;;;8.50;4.45;;;5.40;99.90;;;4.59;100.00;98269.47;4947942;28;20042;-86
2021/12/13 02:47:31;;;;;;;6.13;3.83;;;5.40;99.90;;;4.64;100.00;98281.66;4966871;28;20393;-85
2021/12/13 02:49:58;;;;;;;7.40;4.30;;;5.40;99.90;;;4.51;100.00;98260.72;4944908;28;20115;-85
2021/12/13 02:52:25;;;;;;;6.50;3.80;;;5.30;99.90;;;4.66;100.00;98282.50;4964285;28;20034;-86
2021/12/13 02:55:00;;;;;;;8.55;4.50;;;5.30;99.90;;;4.51;100.00;98254.63;4948422;28;20184;-85
2021/12/13 02:57:39;;;;;;;7.40;4.45;;;5.30;99.90;;;4.54;100.00;98255.50;4969586;28;20868;-86
2021/12/13 03:00:39;;;;;;;7.10;4.18;;;5.40;99.90;;;4.61;100.00;98277.28;4967254;28;20084;-86
2021/12/13 03:03:13;;;;;;;5.75;3.75;;;5.30;99.90;;;4.66;100.00;98274.66;4965840;28;20042;-86
2021/12/13 03:05:47;;;;;;;7.20;3.90;;;5.40;99.90;;;4.67;100.00;98277.28;4986348;28;20251;-86
2021/12/13 03:08:24;;;;;;;4.97;3.75;;;5.40;99.90;;;4.51;100.00;98244.19;4949965;28;20026;-87
2021/12/13 03:11:00;;;;;;;5.38;3.95;;;5.40;99.90;;;4.72;100.00;98274.66;4984436;28;20645;-87
2021/12/13 03:13:29;;;;;;;7.38;3.65;;;5.40;99.90;;;4.74;100.00;98278.19;4984171;28;20026;-87
2021/12/13 03:16:10;;;;;;;9.10;3.90;;;5.40;99.90;;;4.75;100.00;98278.16;4951536;28;20091;-86
2021/12/13 03:18:55;;;;;;;6.25;3.97;;;5.40;99.90;;;4.72;100.00;98265.09;4971375;28;20022;-86
2021/12/13 03:21:58;;;;;;;5.43;3.58;;;5.40;99.90;;;4.77;100.00;98279.06;4969940;28;20481;-86
2021/12/13 03:24:35;;;;;;;7.35;3.95;;;5.40;99.90;;;4.79;100.00;98276.41;4988264;28;20489;-86
2021/12/13 03:27:04;;;;;;;7.90;3.63;;;5.40;99.90;;;4.79;100.00;98281.63;4988256;28;20056;-85
2021/12/13 03:29:50;;;;;;;6.72;3.63;;;5.50;99.90;;;4.80;100.00;98283.38;4989621;28;20121;-86
2021/12/13 03:32:17;;;;;;;10.75;4.28;;;5.50;99.90;;;4.78;100.00;98274.69;4987575;28;20496;-86
2021/12/13 03:35:17;;;;;;;9.45;4.30;;;5.50;99.90;;;4.59;100.00;98248.56;4953567;28;20067;-85
2021/12/13 03:37:44;;;;;;;7.80;4.05;;;5.50;99.90;;;4.82;100.00;98278.16;4980952;28;20095;-86
2021/12/13 03:40:20;;;;;;;10.55;4.57;;;5.50;99.90;;;4.74;100.00;98268.59;4968723;28;20398;-86
2021/12/13 03:42:51;;;;;;;8.00;3.70;;;5.50;99.90;;;4.72;100.00;98264.22;4966617;28;20029;-86
2021/12/13 03:45:34;;;;;;;6.15;3.65;;;5.50;99.90;;;4.76;100.00;98269.44;4980869;28;20453;-86
2021/12/13 03:48:01;;;;;;;6.78;4.00;;;5.50;99.90;;;4.72;100.00;98254.66;4955261;28;20164;-85
2021/12/13 03:50:35;;;;;;;7.32;3.67;;;5.50;99.90;;;4.82;100.00;98271.19;4989133;28;20060;-86
2021/12/13 03:53:09;;;;;;;7.97;4.00;;;5.50;99.90;;;4.81;100.00;98265.97;4971372;28;20026;-86
2021/12/13 03:55:39;;;;;;;6.60;4.05;;;5.50;99.90;;;4.78;100.00;98267.69;4951763;28;20019;-86
2021/12/13 03:58:09;;;;;;;5.47;3.67;;;5.50;99.90;;;4.83;100.00;98277.28;4975974;28;20029;-85
2021/12/13 04:00:45;;;;;;;7.88;3.75;;;5.50;99.90;;;4.82;100.00;98275.56;4988446;28;20037;-86
2021/12/13 04:03:15;;;;;;;7.88;3.80;;;5.50;99.90;;;4.78;100.00;98282.53;4953516;28;20037;-86
2021/12/13 04:05:41;;;;;;;5.47;3.60;;;5.50;99.90;;;4.86;100.00;98282.50;4989378;28;20131;-86
2021/12/13 04:08:12;;;;;;;6.38;3.30;;;5.50;99.90;;;4.84;100.00;98276.41;4950389;28;20239;-86
2021/12/13 04:10:52;;;;;;;10.05;3.90;;;5.50;99.90;;;4.84;100.00;98274.66;4966004;28;20037;-86
2021/12/13 04:13:24;;;;;;;5.93;3.40;;;5.50;99.90;;;4.76;100.00;98263.38;4967258;28;20100;-86
2021/12/13 04:16:15;;;;;;;7.95;3.75;;;5.50;99.90;;;4.87;100.00;98284.28;4962743;28;20029;-86
2021/12/13 04:21:57;;;;;;;6.13;3.55;;;5.50;99.90;;;4.86;100.00;98285.13;4985088;28;20057;-86
2021/12/13 04:24:37;;;;;;;5.47;3.60;;;5.50;99.90;;;4.87;100.00;98279.91;4968670;28;20034;-86
2021/12/13 04:27:19;;;;;;;7.30;3.30;;;5.50;99.90;;;4.80;100.00;98272.94;4958039;28;20478;-85
2021/12/13 04:29:47;;;;;;;7.78;3.60;;;5.50;99.90;;;4.85;100.00;98292.09;4950893;28;20030;-86
2021/12/13 04:32:22;;;;;;;7.05;3.33;;;5.60;99.90;;;4.91;100.00;98301.69;4981804;28;20550;-87
2021/12/13 04:34:54;;;;;;;6.47;3.30;;;5.60;99.90;;;4.92;100.00;98293.00;4982952;28;20129;-86
2021/12/13 04:37:25;;;;;;;5.80;3.22;;;5.60;99.90;;;4.91;100.00;98292.09;4967563;28;20160;-87
2021/12/13 04:39:58;;;;;;;4.72;2.83;;;5.60;99.90;;;4.71;100.00;98259.88;4987161;28;20049;-86
2021/12/13 04:42:27;;;;;;;6.38;2.95;;;5.60;99.90;;;4.87;100.00;98299.94;4962309;28;20026;-86
2021/12/13 04:45:05;;;;;;;6.57;2.92;;;5.60;99.90;;;4.76;100.00;98279.91;4965292;28;20030;-86
2021/12/13 04:48:17;;;;;;;6.85;3.50;;;5.60;99.90;;;4.93;100.00;98311.25;4951694;28;20026;-86
2021/12/13 04:51:07;;;;;;;5.67;3.50;;;5.60;99.90;;;4.91;100.00;98307.78;4960423;28;20441;-86
2021/12/13 04:53:42;;;;;;;7.22;3.47;;;5.60;99.90;;;4.96;100.00;98316.50;4970592;28;20677;-86
2021/12/13 04:56:13;;;;;;;7.18;3.50;;;5.60;99.90;;;4.97;100.00;98309.50;4970515;28;20046;-86
2021/12/13 04:58:43;;;;;;;5.90;3.50;;;5.60;99.90;;;4.92;100.00;98293.00;4971704;28;20281;-86
2021/12/13 05:01:13;;;;;;;5.40;3.42;;;5.60;99.90;;;4.97;100.00;98297.34;4952420;28;20034;-86
2021/12/13 05:03:48;;;;;;;4.57;3.08;;;5.60;99.90;;;4.97;100.00;98301.69;4961542;28;20123;-86
2021/12/13 05:06:19;;;;;;;5.07;3.47;;;5.60;99.90;;;5.01;100.00;98313.00;4958651;28;20347;-87
2021/12/13 05:08:49;;;;;;;5.15;3.40;;;5.70;99.90;;;5.00;100.00;98312.13;4967773;28;20397;-86
2021/12/13 05:11:16;;;;;;;5.47;3.40;;;5.70;99.90;;;5.03;100.00;98306.06;4989162;28;20041;-87
2021/12/13 05:13:51;;;;;;;6.63;3.63;;;5.70;99.90;;;5.05;100.00;98310.41;4956600;28;20034;-87
2021/12/13 05:16:35;;;;;;;4.65;3.17;;;5.70;99.90;;;5.06;100.00;98317.38;4967906;28;20026;-86
2021/12/13 05:19:04;;;;;;;4.95;3.30;;;5.70;99.90;;;5.01;100.00;98311.28;4975129;28;20068;-86
2021/12/13 05:21:50;;;;;;;8.38;3.63;;;5.70;99.90;;;5.02;100.00;98312.16;4952557;28;20026;-86
2021/12/13 05:24:24;;;;;;;8.27;3.58;;;5.70;99.90;;;5.02;100.00;98310.38;4969199;28;20064;-85
2021/12/13 05:26:53;;;;;;;6.80;4.13;;;5.70;99.90;;;5.07;100.00;98329.56;4973876;28;20030;-86
2021/12/13 05:29:32;;;;;;;6.60;4.22;;;5.70;99.90;;;5.08;100.00;98318.25;4955215;28;20037;-87
2021/12/13 05:32:06;;;;;;;6.57;4.32;;;5.70;99.90;;;5.08;100.00;98320.88;4978594;28;20030;-87
2021/12/13 05:34:46;;;;;;;5.90;3.95;;;5.70;99.90;;;5.08;100.00;98336.56;4958065;28;20038;-87
2021/12/13 05:37:12;;;;;;;7.82;4.45;;;5.70;99.90;;;4.97;100.00;98315.63;4975153;28;20032;-87
2021/12/13 05:40:01;;;;;;;5.75;4.55;;;5.70;99.90;;;5.10;100.00;98331.34;4963465;28;20030;-86
2021/12/13 05:42:46;;;;;;;7.75;4.50;;;5.80;99.90;;;5.04;100.00;98313.00;4954490;28;20049;-86
2021/12/13 05:45:19;;;;;;;8.32;4.85;;;5.80;99.90;;;5.09;100.00;98332.19;4992441;28;20037;-86
2021/12/13 05:48:14;;;;;;;7.90;4.22;;;5.80;99.90;;;5.02;100.00;98323.47;4969149;28;20030;-86
2021/12/13 05:51:12;;;;;;;6.35;4.10;;;5.80;99.90;;;5.03;100.00;98322.59;4957037;28;20496;-87
2021/12/13 05:53:45;;;;;;;4.88;3.20;;;5.80;99.90;;;5.15;100.00;98335.69;4969445;28;20092;-86
2021/12/13 05:56:16;;;;;;;6.05;3.85;;;5.80;99.90;;;5.18;100.00;98350.50;4975317;28;20100;-86
2021/12/13 05:58:46;;;;;;;7.45;4.13;;;5.80;99.90;;;5.21;100.00;98355.72;4958260;28;20723;-87
2021/12/13 06:01:59;;;;;;;9.18;4.10;;;5.80;99.90;;;5.13;100.00;98333.91;4956043;28;20378;-86
2021/12/13 06:05:02;;;;;;;5.80;4.10;;;5.90;99.90;;;5.07;100.00;98331.31;4991236;28;20085;-85
2021/12/13 06:07:39;;;;;;;5.93;4.05;;;5.80;99.90;;;5.05;100.00;98327.84;4991715;28;20066;-86
2021/12/13 06:10:16;;;;;;;6.22;4.05;;;5.80;99.90;;;5.20;100.00;98353.09;4953677;28;20117;-84
2021/12/13 06:12:51;;;;;;;5.30;3.97;;;5.90;99.90;;;5.19;100.00;98353.97;4976417;28;20065;-86
2021/12/13 06:15:17;;;;;;;7.32;4.35;;;5.80;99.90;;;5.19;100.00;98344.41;4975239;28;20048;-87
2021/12/13 06:18:07;;;;;;;5.97;4.30;;;5.90;99.90;;;5.20;100.00;98358.34;4980428;28;20640;-87
2021/12/13 06:20:39;;;;;;;7.57;5.13;;;5.80;99.90;;;5.09;100.00;98335.66;4973966;28;20030;-86
2021/12/13 06:23:14;;;;;;;10.18;4.80;;;5.90;99.90;;;5.05;100.00;98320.84;4973079;28;20049;-86
2021/12/13 06:25:44;;;;;;;10.43;4.78;;;5.90;99.90;;;5.15;100.00;98332.16;4951613;28;20050;-86
2021/12/13 06:28:32;;;;;;;8.00;4.30;;;5.90;99.90;;;5.22;100.00;98349.59;4970498;28;20080;-86
2021/12/13 06:31:07;;;;;;;7.28;4.55;;;5.90;99.90;;;5.23;100.00;98347.88;4962939;28;20058;-86
2021/12/13 06:33:51;;;;;;;8.82;5.28;;;5.90;99.90;;;5.15;100.00;98356.59;4961686;28;20033;-86
2021/12/13 06:36:35;;;;;;;7.90;4.97;;;5.90;99.90;;;5.12;100.00;98356.59;4961093;28;20026;-86
2021/12/13 06:39:10;;;;;;;6.10;4.03;;;5.80;99.90;;;5.09;100.00;98353.97;4979160;28;20302;-85
2021/12/13 06:41:49;;;;;;;5.82;3.47;;;5.80;99.90;;;5.16;100.00;98358.31;4979634;28;20029;-85
2021/12/13 06:44:27;;;;;;;7.55;4.13;;;5.80;99.90;;;4.92;100.00;98320.00;4989831;28;20211;-86
2021/12/13 06:47:07;;;;;;;5.68;4.32;;;5.90;99.90;;;5.00;100.00;98332.19;4962106;28;20037;-85
2021/12/13 06:49:45;;;;;;;7.35;4.90;;;5.80;99.90;;;5.19;100.00;98367.94;4976110;28;20774;-86
2021/12/13 06:52:14;;;;;;;8.70;5.15;;;5.90;99.90;;;5.20;100.00;98351.34;4990181;28;20490;-86
2021/12/13 06:54:56;;;;;;;8.02;5.25;;;5.90;99.90;;;5.21;100.00;98347.88;4991732;28;20064;-86
2021/12/13 06:57:30;;;;;;;9.68;5.32;;;5.90;99.90;;;5.24;100.00;98362.69;4993629;28;20045;-85
2021/12/13 07:00:25;;;;;;;8.82;5.68;;;5.90;99.90;;;5.22;100.00;98359.19;4992090;28;20041;-86
2021/12/13 07:03:00;;;;;;;8.10;5.65;;;5.90;99.90;;;5.30;100.00;98375.78;4977532;28;20096;-86
2021/12/13 07:05:35;;;;;;;8.95;5.93;;;5.90;99.90;;;5.27;100.00;98370.53;4976496;28;20422;-86
2021/12/13 07:08:23;;;;;;;6.43;4.82;;;6.00;99.90;;;5.29;100.00;98372.31;4958481;28;20489;-87
2021/12/13 07:10:51;;;;;;;7.13;4.68;;;6.00;99.90;;;5.29;100.00;98376.63;4990577;28;20026;-86
2021/12/13 07:13:20;;;;;;;6.30;4.28;;;6.00;99.90;;;5.29;100.00;98372.31;4995606;28;20042;-86
2021/12/13 07:16:00;;;;;;;7.63;4.65;;;6.00;99.90;;;5.34;100.00;98369.66;4994636;28;20117;-86
2021/12/13 07:18:47;;;;;;;8.63;5.30;;;6.00;99.90;;;5.36;100.00;98373.16;4994272;28;20030;-86
2021/12/13 07:21:23;;;;;;;7.65;5.47;;;6.00;99.90;;;5.37;100.00;98360.97;4959303;28;20034;-86
2021/12/13 07:24:13;;;;;;;8.13;4.72;;;6.00;99.90;;;5.27;100.00;98349.63;4975240;28;20029;-86
2021/12/13 07:26:53;;;;;;;9.00;4.88;;;6.10;99.90;;;5.44;100.00;98367.94;4962132;28;20033;-86
2021/12/13 07:29:28;;;;;;;7.85;4.80;;;6.10;99.90;;;5.26;100.00;98334.81;4989957;28;20037;-86
2021/12/13 07:32:37;;;;;;;9.80;5.47;;;6.10;99.90;;;5.45;100.00;98372.28;4957726;28;20044;-86
2021/12/13 07:35:11;;;;;;;7.75;4.78;;;6.10;99.90;;;5.45;100.00;98373.13;4973527;28;20853;-87
2021/12/13 07:37:47;;;;;;;7.57;4.65;;;6.10;99.90;;;5.45;100.00;98375.75;4959965;28;20031;-85
2021/12/13 07:40:19;;;;;;;8.13;4.97;;;6.10;99.90;;;5.46;100.00;98377.50;4973140;28;20034;-86
2021/12/13 07:43:17;;;;;;;6.72;4.88;;;6.10;99.90;;;5.46;100.00;98374.91;4984817;28;20372;-86
2021/12/13 07:45:57;;;;;;;6.63;4.35;;;6.10;99.90;;;5.44;100.00;98376.66;4958544;28;20038;-86
2021/12/13 07:48:41;;;;;;;7.60;4.55;;;6.10;99.90;;;5.49;100.00;98384.47;4996665;28;20321;-86
2021/12/13 07:51:25;;;;;;;6.53;4.57;;;6.10;99.90;;;5.51;100.00;98378.38;4995952;28;20033;-85
2021/12/13 07:53:57;;;;;;;6.63;4.45;;;6.20;99.90;;;5.55;100.00;98390.59;4958082;28;20096;-84
2021/12/13 07:56:28;;;;;;;8.10;4.63;;;6.20;99.90;;;5.57;100.00;98382.72;4982049;28;21809;-84
2021/12/13 07:59:34;;;;;;;9.82;4.85;;;6.20;99.90;;;5.58;100.00;98387.09;4994345;28;20113;-85
2021/12/13 08:02:08;;;;;;;6.63;4.85;;;6.20;99.90;;;5.57;100.00;98390.59;4959301;28;20121;-84
2021/12/13 08:04:57;;;;;;;7.53;4.78;;;6.30;99.90;;;5.57;100.00;98379.25;4989843;28;20434;-85
2021/12/13 08:07:27;;;;;;;10.57;5.22;;;6.30;99.90;;;5.65;100.00;98386.22;4977257;28;20041;-84
2021/12/13 08:10:07;;;;;;;9.57;5.80;;;6.30;99.90;;;5.65;100.00;98369.63;4963405;28;20026;-85
2021/12/13 08:12:44;;;;;;;11.77;6.50;;;6.40;99.90;;;5.77;100.00;98385.31;4983183;28;20037;-85
2021/12/13 08:15:24;;;;;;;12.07;6.47;;;6.40;99.90;;;5.71;100.00;98374.88;4971470;28;20053;-84
2021/12/13 08:18:01;;;;;;;10.77;6.60;;;6.50;99.90;;;5.84;100.00;98394.03;4977832;28;20345;-85
2021/12/13 08:20:47;;;;;;;11.02;6.43;;;6.50;99.90;;;5.84;100.00;98399.28;4971531;28;20754;-85
2021/12/13 08:23:53;;;;;;;10.32;6.50;;;6.50;99.90;;;5.77;100.00;98390.56;4970086;28;20029;-85
2021/12/13 08:26:42;;;;;;;11.27;6.80;;;6.50;99.90;;;5.92;100.00;98394.88;4987489;28;20578;-85
2021/12/13 08:29:19;;;;;;;11.80;6.50;;;6.50;99.90;;;5.88;100.00;98378.28;4974370;28;20080;-85
2021/12/13 08:31:48;;;;;;;11.13;6.15;;;6.60;99.90;;;6.09;100.00;98402.72;4954922;28;20056;-85
2021/12/13 08:34:34;;;;;;;9.63;7.00;;;6.70;99.90;;;6.21;100.00;98402.69;4972166;28;20030;-85
2021/12/13 08:37:09;;;;;;;12.27;7.10;;;6.90;99.90;;;6.30;100.00;98388.69;4958209;28;20037;-85
2021/12/13 08:39:37;;;;;;;10.05;6.32;;;7.00;99.90;;;6.44;100.00;98388.63;4970165;28;20023;-84
2021/12/13 08:42:12;;;;;;;10.43;6.50;;;7.10;99.90;;;6.68;100.00;98406.84;4961183;28;20033;-85
2021/12/13 08:45:22;;;;;;;11.57;6.65;;;7.30;99.90;;;6.78;100.00;98399.78;4991118;28;20037;-85
2021/12/13 08:48:00;;;;;;;10.27;6.63;;;7.50;99.90;;;6.92;100.00;98404.97;4958152;28;20263;-86
2021/12/13 08:50:50;;;;;;;9.50;5.85;;;7.50;99.90;;;6.98;100.00;98410.19;4955646;28;20722;-84
2021/12/13 08:53:35;;;;;;;13.10;6.70;;;7.60;99.90;;;7.01;100.00;98411.91;4970258;28;20487;-85
2021/12/13 08:56:11;;;;;;;9.77;6.40;;;7.60;99.90;;;7.01;100.00;98399.66;4956229;28;20038;-84
2021/12/13 08:59:03;;;;;;;10.00;6.65;;;7.60;99.90;;;7.13;100.00;98408.34;4955804;28;20334;-85
2021/12/13 09:02:08;;;;;;;13.32;7.22;;;7.70;99.90;;;7.17;100.00;98423.16;4988553;28;20506;-85
2021/12/13 09:04:41;;;;;;;12.82;7.57;;;7.70;99.90;;;7.05;100.00;98404.03;4975736;28;20026;-85
2021/12/13 09:07:13;;;;;;;12.00;7.18;;;7.80;99.90;;;7.04;100.00;98380.41;4971247;28;20037;-86
2021/12/13 09:09:46;;;;;;;13.77;7.10;;;7.80;99.90;;;7.28;100.00;98418.72;4972170;28;20041;-85
2021/12/13 09:12:15;;;;;;;13.02;7.28;;;7.90;99.90;;;7.31;100.00;98426.56;4989416;28;20045;-85
2021/12/13 09:14:51;;;;;;;15.25;7.75;;;7.90;99.90;;;7.38;100.00;98433.50;4981341;28;20162;-85
2021/12/13 09:17:41;;;;;;;14.32;7.95;;;7.90;99.90;;;7.30;100.00;98408.22;4960087;28;20030;-86
2021/12/13 09:20:31;;;;;;;14.27;7.30;;;8.00;99.90;;;7.42;100.00;98424.72;4992759;28;20061;-87
2021/12/13 09:23:24;;;;;;;12.48;7.60;;;8.00;99.90;;;7.61;100.00;98440.34;4992083;28;20038;-86
2021/12/13 09:26:02;;;;;;;12.63;7.35;;;8.20;99.90;;;7.68;100.00;98431.53;4986306;28;20033;-84
2021/12/13 09:28:37;;;;;;;13.20;7.20;;;8.30;99.90;;;7.40;100.00;98384.50;4974264;28;20042;-85
2021/12/13 09:31:12;;;;;;;14.45;7.30;;;8.30;99.90;;;7.84;100.00;98429.59;4973010;28;20022;-89
2021/12/13 09:33:53;;;;;;;15.45;8.10;;;8.40;99.90;;;7.96;100.00;98437.38;4975515;28;20038;-89
2021/12/13 09:36:30;;;;;;;14.10;8.00;;;8.60;99.90;;;8.09;100.00;98442.50;4973573;28;20040;-88
2021/12/13 09:39:17;;;;;;;15.52;8.13;;;8.60;99.90;;;8.19;100.00;98437.13;4961186;28;20168;-88
2021/12/13 09:42:03;;;;;;;17.67;9.18;;;8.80;99.90;;;8.13;100.00;98413.56;4975406;28;20034;-88
2021/12/13 09:44:37;;;;;;;14.07;8.15;;;8.80;99.90;;;8.32;100.00;98435.25;4962326;28;20029;-85
2021/12/13 09:47:11;;;;;;;11.35;7.22;;;8.90;99.90;;;8.38;100.00;98431.66;4994855;28;20091;-85
2021/12/13 09:49:45;;;;;;;16.58;8.60;;;8.90;99.90;;;8.43;100.00;98429.03;4981124;28;20136;-88
2021/12/13 09:52:25;;;;;;;14.45;7.70;;;9.00;99.90;;;8.46;100.00;98421.13;4970509;28;20053;-88
2021/12/13 09:55:18;;;;;;;14.27;8.00;;;9.00;99.90;;;8.41;100.00;98423.75;4990265;28;20402;-89
2021/12/13 09:58:02;;;;;;;13.40;7.50;;;9.00;99.90;;;8.49;100.00;98415.78;4973208;28;20030;-88
2021/12/13 10:00:43;;;;;;;11.23;6.45;;;9.10;99.90;;;8.51;100.00;98403.53;4993781;28;20026;-88
2021/12/13 10:03:20;;;;;;;10.68;6.53;;;9.10;99.90;;;8.57;100.00;98409.56;4959021;28;20035;-88
2021/12/13 10:05:51;;;;;;;13.05;6.57;;;9.10;99.90;;;8.60;100.00;98416.56;4966700;28;20086;-88
2021/12/13 10:08:26;;;;;;;14.18;6.32;;;9.20;99.90;;;8.47;100.00;98379.03;4975045;28;20028;-88
2021/12/13 10:11:08;;;;;;;11.10;6.88;;;9.20;99.90;;;8.73;100.00;98404.13;4979605;28;20070;-88
2021/12/13 10:13:38;;;;;;;9.65;6.43;;;9.30;99.90;;;8.79;100.00;98390.88;4964377;28;20063;-88
2021/12/13 10:16:33;;;;;;;11.60;6.10;;;9.40;99.90;;;8.85;100.00;98393.44;4986094;28;20038;-88
2021/12/13 10:19:04;;;;;;;10.38;6.22;;;9.40;99.90;;;8.95;100.00;98400.31;4993255;28;20113;-88
2021/12/13 10:21:36;;;;;;;11.18;6.07;;;9.50;99.90;;;8.95;100.00;98408.19;4975057;28;20490;-88
2021/12/13 10:24:09;;;;;;;13.63;6.50;;;9.50;99.90;;;9.05;100.00;98408.06;4971994;28;20052;-87
2021/12/13 10:26:41;;;;;;;12.60;6.10;;;9.60;99.90;;;9.00;100.00;98402.00;4961764;28;20049;-88
2021/12/13 10:29:12;;;;;;;11.75;5.22;;;9.60;99.90;;;9.04;100.00;98401.03;4986404;28;20034;-87
2021/12/13 10:31:48;;;;;;;9.10;6.05;;;9.60;99.90;;;8.91;100.00;98360.91;4976704;28;20053;-88
2021/12/13 10:34:27;;;;;;;11.63;6.10;;;9.70;99.90;;;8.95;100.00;98381.00;4967122;28;20516;-87
2021/12/13 10:37:04;;;;;;;10.35;5.95;;;9.70;99.90;;;8.95;100.00;98374.00;4963986;28;20029;-88
2021/12/13 10:39:38;;;;;;;8.80;5.57;;;9.70;99.90;;;9.13;100.00;98390.38;4977395;28;20084;-88
2021/12/13 10:42:19;;;;;;;11.05;5.13;;;9.70;99.90;;;9.12;100.00;98392.16;4962036;28;20026;-88
2021/12/13 10:44:46;;;;;;;9.17;4.60;;;9.70;99.90;;;9.07;100.00;98388.72;4977895;28;20062;-88
2021/12/13 10:47:23;;;;;;;8.85;5.07;;;9.70;99.90;;;9.03;100.00;98386.16;4961959;28;20387;-87
2021/12/13 10:49:50;;;;;;;10.25;4.20;;;9.60;99.90;;;8.98;100.00;98394.97;4980383;28;20034;-85
2021/12/13 10:52:32;;;;;;;5.95;3.70;;;9.60;99.90;;;9.03;100.00;98384.41;4996510;28;20025;-84
2021/12/13 10:55:08;;;;;;;9.43;4.40;;;9.60;99.90;;;8.63;100.00;98307.81;4961861;28;20072;-86
2021/12/13 10:57:48;;;;;;;7.90;4.90;;;9.70;99.90;;;8.97;100.00;98359.03;5007404;28;20497;-86
2021/12/13 11:00:41;;;;;;;10.43;5.00;;;9.70;99.90;;;9.17;100.00;98384.19;4966012;28;20029;-86
2021/12/13 11:03:21;;;;;;;7.30;4.53;;;9.80;99.90;;;9.09;100.00;98368.50;4974597;28;21456;-86
2021/12/13 11:05:49;;;;;;;9.02;4.30;;;9.80;99.90;;;9.25;100.00;98371.75;4993205;28;20165;-86
2021/12/13 11:08:18;;;;;;;10.45;5.03;;;9.90;99.90;;;9.34;100.00;98384.78;4962893;28;20491;-85
2021/12/13 11:10:56;;;;;;;10.93;5.53;;;9.90;99.90;;;9.38;100.00;98380.31;4971221;28;20328;-85
2021/12/13 11:13:27;;;;;;;9.57;5.40;;;10.00;99.90;;;9.47;100.00;98374.91;4976758;28;20121;-84
2021/12/13 11:15:59;;;;;;;10.20;5.13;;;10.00;99.90;;;9.43;100.00;98360.06;4962628;28;20489;-85
2021/12/13 11:18:28;;;;;;;8.82;4.70;;;10.10;99.90;;;9.53;100.00;98364.28;4976265;28;20480;-85
2021/12/13 11:21:00;;;;;;;10.38;6.03;;;10.10;99.90;;;9.58;100.00;98366.81;4977730;28;20037;-86
2021/12/13 11:23:26;;;;;;;9.65;5.88;;;10.20;99.90;;;9.66;100.00;98364.06;4963746;28;20022;-86